Time;durP1;ratioP1;P1;durP2;ratioP2;P2;SDS_P1;SDS_P2;PMS_P1;PMS_P2;Temp;Humidity;BMP_temperature;BMP_pressure;BME280_temperature;BME280_humidity;BME280_pressure;Samples;Min_cycle;Max_cycle;Signal;HPM_P1;HPM_P2
2023/10/28 00:00:48;;;;;;;23.48;17.25;;;;;;;12.89;74.25;97785.16;4973197;28;20047;-76
2023/10/28 00:03:15;;;;;;;26.33;18.20;;;;;;;12.88;74.21;97789.63;4973867;28;20046;-76
2023/10/28 00:05:42;;;;;;;30.30;19.27;;;;;;;12.87;74.57;97787.94;4973811;28;20055;-73
2023/10/28 00:08:09;;;;;;;26.58;19.08;;;;;;;12.86;74.52;97791.56;4973805;28;20130;-77
2023/10/28 00:10:35;;;;;;;24.83;17.70;;;;;;;12.86;74.25;97786.28;4973588;28;20467;-74
2023/10/28 00:13:04;;;;;;;32.97;19.33;;;;;;;12.85;74.35;97791.72;4973494;28;20161;-73
2023/10/28 00:15:31;;;;;;;27.17;18.35;;;;;;;12.84;74.25;97790.91;4973469;28;20495;-75
2023/10/28 00:17:57;;;;;;;31.58;19.25;;;;;;;12.82;74.50;97792.84;4973684;28;20078;-77
2023/10/28 00:20:24;;;;;;;32.45;19.65;;;;;;;12.82;74.42;97792.84;4972297;28;20055;-80
2023/10/28 00:22:53;;;;;;;28.85;18.00;;;;;;;12.81;74.48;97801.78;4972079;28;20503;-74
2023/10/28 00:25:29;;;;;;;30.17;19.48;;;;;;;12.81;74.57;97793.84;5004304;28;20070;-73
2023/10/28 00:27:55;;;;;;;27.92;18.48;;;;;;;12.82;74.62;97805.25;4973771;28;20061;-76
2023/10/28 00:30:22;;;;;;;30.45;19.67;;;;;;;12.81;74.68;97804.41;4973418;28;20137;-78
2023/10/28 00:32:50;;;;;;;31.13;19.70;;;;;;;12.80;74.75;97807.19;4973457;28;20043;-73
2023/10/28 00:35:17;;;;;;;26.65;19.02;;;;;;;12.80;74.77;97805.41;4973131;28;20054;-78
2023/10/28 00:37:45;;;;;;;27.48;18.23;;;;;;;12.80;74.78;97809.84;4972215;28;20051;-75
2023/10/28 00:40:12;;;;;;;25.63;17.95;;;;;;;12.80;75.04;97805.41;4972941;28;20472;-74
2023/10/28 00:42:38;;;;;;;23.73;17.50;;;;;;;12.80;75.00;97808.03;5004176;28;20105;-73
2023/10/28 00:45:09;;;;;;;28.23;19.02;;;;;;;12.81;75.03;97804.41;5004365;28;20046;-80
2023/10/28 00:47:38;;;;;;;27.17;18.13;;;;;;;12.82;74.96;97810.53;4971824;28;20146;-75
2023/10/28 00:50:14;;;;;;;26.92;18.52;;;;;;;12.79;75.35;97808.19;4972830;28;20153;-74
2023/10/28 00:52:44;;;;;;;27.55;17.90;;;;;;;12.81;75.01;97809.69;4973203;28;20134;-76
2023/10/28 00:55:12;;;;;;;25.88;16.67;;;;;;;12.82;74.81;97816.63;4973156;28;20046;-74
2023/10/28 00:57:41;;;;;;;25.38;17.70;;;;;;;12.82;74.76;97819.25;4972725;28;20484;-75
2023/10/28 01:00:09;;;;;;;24.33;16.35;;;;;;;12.81;74.65;97822.88;4972756;28;20042;-75
2023/10/28 01:02:35;;;;;;;25.83;16.23;;;;;;;12.80;74.58;97818.59;4972722;28;20070;-73
2023/10/28 01:05:03;;;;;;;27.42;16.70;;;;;;;12.79;74.71;97819.59;4972752;28;20126;-72
2023/10/28 01:07:31;;;;;;;27.45;18.17;;;;;;;12.78;74.66;97817.91;4972895;28;20046;-76
2023/10/28 01:09:58;;;;;;;23.90;17.38;;;;;;;12.77;74.70;97816.25;4972594;28;20511;-76
2023/10/28 01:12:26;;;;;;;28.48;17.75;;;;;;;12.75;74.87;97810.31;4972057;28;20054;-82
2023/10/28 01:14:53;;;;;;;27.80;18.52;;;;;;;12.76;74.57;97817.22;4972638;28;20372;-75
2023/10/28 01:17:25;;;;;;;23.95;16.35;;;;;;;12.74;74.64;97808.63;4972676;28;20054;-75
2023/10/28 01:19:53;;;;;;;24.35;17.33;;;;;;;12.74;74.64;97806.81;4972367;28;20049;-74
2023/10/28 01:22:21;;;;;;;26.52;16.55;;;;;;;12.72;74.64;97800.88;4972665;28;20059;-77
2023/10/28 01:24:49;;;;;;;24.33;15.43;;;;;;;12.73;74.72;97799.03;4972686;28;20038;-74
2023/10/28 01:27:19;;;;;;;21.30;14.73;;;;;;;12.70;74.62;97800.19;4972438;28;20043;-75
2023/10/28 01:29:46;;;;;;;25.60;15.68;;;;;;;12.71;74.34;97801.03;4972249;28;20055;-76
2023/10/28 01:32:14;;;;;;;23.05;15.80;;;;;;;12.70;74.33;97796.69;4972710;28;20050;-73
2023/10/28 01:34:50;;;;;;;23.40;15.85;;;;;;;12.66;74.47;97803.25;4972314;28;20153;-74
2023/10/28 01:37:17;;;;;;;21.42;14.18;;;;;;;12.66;74.23;97806.72;5003468;28;20077;-76
2023/10/28 01:39:50;;;;;;;21.42;13.60;;;;;;;12.62;74.28;97802.72;4972340;28;20081;-75
2023/10/28 01:42:16;;;;;;;21.45;14.15;;;;;;;12.62;74.16;97800.09;4972209;28;20190;-78
2023/10/28 01:44:45;;;;;;;21.70;13.65;;;;;;;12.59;73.99;97803.03;4972382;28;20055;-73
2023/10/28 01:47:13;;;;;;;18.55;12.07;;;;;;;12.56;74.37;97801.50;4972103;28;20057;-83
2023/10/28 01:49:40;;;;;;;18.33;12.15;;;;;;;12.52;74.07;97794.88;4972216;28;20055;-73
2023/10/28 01:52:10;;;;;;;18.20;12.88;;;;;;;12.50;74.31;97807.41;4972270;28;20055;-76
2023/10/28 01:54:37;;;;;;;20.48;13.35;;;;;;;12.48;74.19;97807.53;5003305;28;20440;-75
2023/10/28 01:57:09;;;;;;;19.55;11.88;;;;;;;12.46;74.45;97812.16;4972266;28;20511;-75
2023/10/28 01:59:37;;;;;;;21.30;12.27;;;;;;;12.44;74.46;97807.97;5003042;28;20544;-76
2023/10/28 02:02:04;;;;;;;19.02;12.52;;;;;;;12.43;74.22;97811.59;4972170;28;20053;-72
2023/10/28 02:04:32;;;;;;;22.48;12.65;;;;;;;12.41;74.35;97809.09;4972307;28;20050;-75
2023/10/28 02:06:59;;;;;;;16.20;11.65;;;;;;;12.41;74.53;97813.56;4970908;28;20130;-74
2023/10/28 02:09:27;;;;;;;21.38;11.27;;;;;;;12.40;74.56;97811.91;5002950;28;20097;-75
2023/10/28 02:11:54;;;;;;;21.85;11.68;;;;;;;12.40;74.62;97811.91;4971976;28;20043;-77
2023/10/28 02:14:23;;;;;;;15.45;11.30;;;;;;;12.38;74.55;97810.22;4971010;28;20054;-72
2023/10/28 02:16:50;;;;;;;21.27;11.23;;;;;;;12.38;74.48;97807.59;4971961;28;20106;-74
2023/10/28 02:19:20;;;;;;;17.35;11.15;;;;;;;12.37;74.60;97810.38;4970538;28;20402;-74
2023/10/28 02:21:49;;;;;;;17.90;10.85;;;;;;;12.37;74.50;97811.22;4971867;28;20047;-73
2023/10/28 02:24:32;;;;;;;16.35;10.88;;;;;;;12.38;74.34;97809.41;5001537;28;20058;-76
2023/10/28 02:26:59;;;;;;;23.45;12.10;;;;;;;12.37;74.51;97810.38;4975698;28;20055;-77
2023/10/28 02:29:25;;;;;;;20.08;11.68;;;;;;;12.35;74.58;97807.91;4975463;28;20078;-75
2023/10/28 02:31:52;;;;;;;20.05;11.10;;;;;;;12.34;74.32;97814.13;4975512;28;20067;-79
2023/10/28 02:34:19;;;;;;;19.92;10.75;;;;;;;12.33;74.29;97815.13;5006315;28;20059;-76
2023/10/28 02:36:46;;;;;;;20.85;12.18;;;;;;;12.32;74.53;97815.25;4975352;28;20593;-77
2023/10/28 02:39:13;;;;;;;20.60;12.23;;;;;;;12.30;74.44;97812.78;4974238;28;20094;-74
2023/10/28 02:41:40;;;;;;;17.48;11.25;;;;;;;12.29;74.64;97811.13;4975329;28;20080;-76
2023/10/28 02:44:07;;;;;;;16.13;10.73;;;;;;;12.30;74.61;97815.41;4975080;28;20472;-79
2023/10/28 02:46:33;;;;;;;16.90;11.10;;;;;;;12.28;74.71;97819.16;4975106;28;20546;-74
2023/10/28 02:49:00;;;;;;;21.35;11.88;;;;;;;12.28;74.87;97820.00;4973723;28;20046;-74
2023/10/28 02:51:26;;;;;;;18.58;11.57;;;;;;;12.29;74.96;97813.75;4975063;28;20082;-71
2023/10/28 02:53:53;;;;;;;17.08;10.85;;;;;;;12.30;74.74;97815.41;4975240;28;20611;-76
2023/10/28 02:56:20;;;;;;;16.20;10.43;;;;;;;12.30;74.70;97815.41;4975056;28;20097;-76
2023/10/28 02:58:46;;;;;;;18.63;11.48;;;;;;;12.31;74.81;97816.25;4974847;28;20072;-75
2023/10/28 03:01:13;;;;;;;19.52;10.82;;;;;;;12.31;74.76;97825.00;5006031;28;20082;-73
2023/10/28 03:03:41;;;;;;;19.20;10.80;;;;;;;12.29;74.92;97820.84;4974803;28;20064;-74
2023/10/28 03:06:08;;;;;;;15.43;9.88;;;;;;;12.30;74.79;97823.31;5005907;28;20513;-76
2023/10/28 03:08:35;;;;;;;22.13;10.52;;;;;;;12.30;75.03;97823.31;5005908;28;20047;-75
2023/10/28 03:11:02;;;;;;;17.75;10.57;;;;;;;12.32;74.82;97825.81;5005920;28;20497;-75
2023/10/28 03:13:28;;;;;;;15.30;10.32;;;;;;;12.32;75.10;97834.56;4974735;28;20133;-76
2023/10/28 03:15:56;;;;;;;18.70;10.48;;;;;;;12.32;74.94;97825.81;4974868;28;20137;-75
2023/10/28 03:18:23;;;;;;;16.42;10.40;;;;;;;12.34;75.02;97835.25;4974660;28;20064;-75
2023/10/28 03:20:50;;;;;;;16.42;10.05;;;;;;;12.35;74.91;97826.38;4974466;28;20042;-76
2023/10/28 03:23:16;;;;;;;19.40;11.43;;;;;;;12.36;74.88;97821.91;4974485;28;20455;-75
2023/10/28 03:25:43;;;;;;;20.50;11.25;;;;;;;12.37;74.86;97834.97;4974489;28;20039;-74
2023/10/28 03:28:10;;;;;;;17.10;10.93;;;;;;;12.37;74.68;97826.19;4974463;28;20046;-74
2023/10/28 03:30:37;;;;;;;19.00;11.27;;;;;;;12.38;74.96;97830.53;4974201;28;20137;-75
2023/10/28 03:33:03;;;;;;;15.70;10.50;;;;;;;12.38;74.88;97826.06;4974814;28;20058;-77
2023/10/28 03:35:30;;;;;;;19.60;10.30;;;;;;;12.40;74.98;97825.09;4973434;28;20051;-79
2023/10/28 03:37:57;;;;;;;16.88;10.30;;;;;;;12.41;74.87;97827.56;4974455;28;20050;-73
2023/10/28 03:40:24;;;;;;;20.00;10.70;;;;;;;12.41;74.91;97832.84;4974058;28;20071;-74
2023/10/28 03:42:51;;;;;;;17.83;9.02;;;;;;;12.43;74.84;97827.44;4972993;28;20061;-76
2023/10/28 03:45:17;;;;;;;17.58;9.35;;;;;;;12.43;74.82;97830.06;4974267;28;20082;-75
2023/10/28 03:47:44;;;;;;;15.60;9.57;;;;;;;12.43;74.83;97822.16;4974361;28;20043;-75
2023/10/28 03:50:11;;;;;;;13.07;9.43;;;;;;;12.44;74.66;97837.00;4974276;28;20057;-77
2023/10/28 03:52:37;;;;;;;17.50;9.38;;;;;;;12.44;74.60;97831.72;4974354;28;20051;-72
2023/10/28 03:55:04;;;;;;;19.15;8.85;;;;;;;12.43;74.69;97832.72;4974155;28;20053;-79
2023/10/28 03:57:31;;;;;;;16.50;9.18;;;;;;;12.45;74.68;97836.03;4973919;28;20050;-77
2023/10/28 03:59:58;;;;;;;18.13;9.18;;;;;;;12.44;74.58;97834.34;4973680;28;20051;-76
2023/10/28 04:02:25;;;;;;;13.25;8.73;;;;;;;12.44;74.75;97829.94;4973823;28;20051;-75
2023/10/28 04:04:52;;;;;;;13.15;8.20;;;;;;;12.44;74.84;97832.56;4973697;28;20058;-76
2023/10/28 04:07:19;;;;;;;14.57;8.32;;;;;;;12.45;74.76;97838.69;4973814;28;20082;-78
2023/10/28 04:09:45;;;;;;;11.45;7.93;;;;;;;12.45;74.70;97836.84;4972251;28;20085;-75
2023/10/28 04:12:12;;;;;;;13.10;8.50;;;;;;;12.47;74.85;97839.34;4973590;28;20047;-75
2023/10/28 04:14:39;;;;;;;16.70;9.75;;;;;;;12.47;74.61;97834.06;4973711;28;20098;-77
2023/10/28 04:17:05;;;;;;;11.98;8.15;;;;;;;12.48;74.64;97838.38;4973445;28;20476;-71
2023/10/28 04:19:32;;;;;;;18.05;8.70;;;;;;;12.48;74.57;97831.28;4972340;28;20534;-79
2023/10/28 04:21:59;;;;;;;14.18;8.77;;;;;;;12.49;74.68;97837.41;4973687;28;20043;-75
2023/10/28 04:24:25;;;;;;;19.48;9.18;;;;;;;12.49;74.65;97838.22;4973425;28;20126;-75
2023/10/28 04:26:52;;;;;;;17.70;9.73;;;;;;;12.49;74.58;97827.66;4973279;28;20054;-77
2023/10/28 04:29:19;;;;;;;15.63;9.07;;;;;;;12.49;74.51;97826.84;4973323;28;20102;-73
2023/10/28 04:31:46;;;;;;;15.73;9.30;;;;;;;12.50;74.52;97828.50;4973460;28;20086;-75
2023/10/28 04:34:13;;;;;;;13.77;8.02;;;;;;;12.49;74.50;97827.66;4973532;28;20057;-72
2023/10/28 04:36:39;;;;;;;18.35;8.57;;;;;;;12.49;74.56;97827.66;4973154;28;20529;-78
2023/10/28 04:39:06;;;;;;;15.77;7.82;;;;;;;12.50;74.65;97834.63;4972948;28;20102;-76
2023/10/28 04:41:33;;;;;;;11.63;7.90;;;;;;;12.51;74.57;97823.09;4973063;28;20550;-75
2023/10/28 04:44:01;;;;;;;13.82;7.90;;;;;;;12.52;74.53;97826.53;4973268;28;20057;-73
2023/10/28 04:46:29;;;;;;;13.63;7.68;;;;;;;12.52;74.49;97826.53;4972694;28;20415;-74
2023/10/28 04:48:56;;;;;;;13.57;7.38;;;;;;;12.53;74.46;97828.22;4972783;28;20054;-77
2023/10/28 04:51:24;;;;;;;15.55;7.45;;;;;;;12.53;74.24;97830.03;4973025;28;20444;-74
2023/10/28 04:53:51;;;;;;;13.05;7.10;;;;;;;12.52;74.56;97829.19;4971611;28;20447;-76
2023/10/28 04:56:18;;;;;;;12.75;7.50;;;;;;;12.52;74.36;97831.81;4973038;28;20070;-75
2023/10/28 04:58:45;;;;;;;12.55;7.15;;;;;;;12.51;74.36;97836.28;4972452;28;20050;-76
2023/10/28 05:01:11;;;;;;;16.33;7.63;;;;;;;12.51;74.40;97828.38;4971469;28;20053;-75
2023/10/28 05:03:38;;;;;;;13.00;7.45;;;;;;;12.50;74.35;97828.50;4972605;28;20042;-75
2023/10/28 05:06:06;;;;;;;15.55;8.00;;;;;;;12.50;74.44;97831.16;4972776;28;20183;-76
2023/10/28 05:08:32;;;;;;;16.45;8.13;;;;;;;12.50;74.45;97831.16;4972249;28;20125;-80
2023/10/28 05:10:59;;;;;;;13.85;7.80;;;;;;;12.49;74.51;97822.38;4972397;28;20047;-72
2023/10/28 05:13:25;;;;;;;13.25;6.57;;;;;;;12.49;74.43;97826.84;4971321;28;20133;-77
2023/10/28 05:15:53;;;;;;;13.85;7.35;;;;;;;12.48;74.41;97830.44;4971256;28;20050;-73
2023/10/28 05:18:19;;;;;;;13.45;7.15;;;;;;;12.48;74.78;97831.28;4972667;28;20368;-75
2023/10/28 05:20:46;;;;;;;12.55;7.32;;;;;;;12.48;74.42;97830.44;4972104;28;20090;-76
2023/10/28 05:23:13;;;;;;;12.25;7.78;;;;;;;12.48;74.58;97836.56;4972172;28;20130;-75
2023/10/28 05:25:40;;;;;;;13.32;7.63;;;;;;;12.47;74.69;97834.91;4972247;28;20435;-75
2023/10/28 05:28:07;;;;;;;14.05;8.57;;;;;;;12.48;74.48;97839.22;4972382;28;20408;-79
2023/10/28 05:30:33;;;;;;;11.50;7.32;;;;;;;12.48;74.56;97844.50;4972019;28;20050;-73
2023/10/28 05:33:10;;;;;;;13.85;7.85;;;;;;;12.48;74.52;97846.28;4970066;28;20530;-73
2023/10/28 05:35:36;;;;;;;13.40;7.32;;;;;;;12.47;74.45;97844.63;4972069;28;20046;-76
2023/10/28 05:38:03;;;;;;;15.77;6.80;;;;;;;12.48;74.60;97852.41;4972497;28;20078;-74
2023/10/28 05:40:29;;;;;;;10.30;7.10;;;;;;;12.47;74.55;97856.03;4972176;28;20125;-77
2023/10/28 05:42:56;;;;;;;13.30;7.38;;;;;;;12.47;74.38;97857.81;4972321;28;20038;-73
2023/10/28 05:45:23;;;;;;;12.52;6.70;;;;;;;12.47;74.41;97857.81;4970811;28;20126;-74
2023/10/28 05:47:49;;;;;;;13.05;6.90;;;;;;;12.47;74.63;97861.31;4972142;28;20054;-74
2023/10/28 05:50:17;;;;;;;12.38;6.93;;;;;;;12.47;74.44;97857.81;4971725;28;20575;-77
2023/10/28 05:52:44;;;;;;;10.38;6.68;;;;;;;12.47;74.47;97852.53;4972316;28;20053;-72
2023/10/28 05:55:12;;;;;;;14.00;7.25;;;;;;;12.46;74.48;97858.81;4972248;28;20083;-73
2023/10/28 05:57:40;;;;;;;14.40;6.38;;;;;;;12.45;74.76;97860.59;4971974;28;20043;-74
2023/10/28 06:00:10;;;;;;;14.05;7.22;;;;;;;12.46;74.52;97861.44;4975749;28;20534;-77
2023/10/28 06:02:38;;;;;;;12.27;6.57;;;;;;;12.44;74.18;97864.22;4976005;28;20134;-73
2023/10/28 06:05:06;;;;;;;10.30;6.07;;;;;;;12.43;74.47;97856.44;4976075;28;20043;-72
2023/10/28 06:07:33;;;;;;;11.25;5.95;;;;;;;12.42;74.51;97865.34;4974802;28;20057;-74
2023/10/28 06:09:59;;;;;;;12.57;6.90;;;;;;;12.42;74.59;97868.00;4975838;28;20097;-73
2023/10/28 06:12:26;;;;;;;9.80;5.80;;;;;;;12.41;74.72;97861.06;4975860;28;20395;-81
2023/10/28 06:14:53;;;;;;;12.20;6.32;;;;;;;12.41;74.45;97867.16;4975919;28;20049;-71
2023/10/28 06:17:22;;;;;;;10.38;6.15;;;;;;;12.41;74.21;97866.34;4975640;28;20550;-71
2023/10/28 06:19:49;;;;;;;13.52;6.45;;;;;;;12.38;74.46;97870.91;4975686;28;20051;-75
2023/10/28 06:22:16;;;;;;;9.90;6.18;;;;;;;12.38;74.42;97878.03;4975811;28;20057;-75
2023/10/28 06:24:42;;;;;;;9.75;5.88;;;;;;;12.36;74.57;97872.88;4975591;28;20051;-75
2023/10/28 06:27:09;;;;;;;10.50;5.57;;;;;;;12.37;74.72;97878.97;4975722;28;20046;-73
2023/10/28 06:29:35;;;;;;;10.70;6.00;;;;;;;12.35;74.64;97884.41;4975496;28;20455;-71
2023/10/28 06:32:02;;;;;;;7.95;5.57;;;;;;;12.35;74.55;97879.16;4975407;28;20499;-75
2023/10/28 06:34:30;;;;;;;9.82;5.55;;;;;;;12.34;74.63;97882.72;4974081;28;20571;-76
2023/10/28 06:36:57;;;;;;;8.32;5.75;;;;;;;12.34;74.62;97874.81;4975141;28;20047;-74
2023/10/28 06:39:24;;;;;;;13.18;5.50;;;;;;;12.34;74.62;97877.47;4975307;28;20051;-76
2023/10/28 06:41:51;;;;;;;10.68;5.40;;;;;;;12.34;74.79;97884.56;4975340;28;20796;-75
2023/10/28 06:44:19;;;;;;;8.60;5.38;;;;;;;12.33;74.75;97881.06;4975179;28;20133;-74
2023/10/28 06:46:45;;;;;;;11.25;5.15;;;;;;;12.34;74.46;97887.19;4975166;28;20050;-74
2023/10/28 06:49:12;;;;;;;9.48;4.68;;;;;;;12.33;74.56;97896.06;4974982;28;20055;-73
2023/10/28 06:51:39;;;;;;;10.43;5.05;;;;;;;12.32;74.53;97895.25;4975096;28;20543;-75
2023/10/28 06:54:06;;;;;;;8.70;5.55;;;;;;;12.32;74.65;97897.91;4975094;28;20051;-74
2023/10/28 06:56:33;;;;;;;7.13;4.75;;;;;;;12.32;74.71;97899.69;4974888;28;20039;-73
2023/10/28 06:58:59;;;;;;;10.05;4.82;;;;;;;12.32;74.61;97902.31;4974658;28;20055;-75
2023/10/28 07:01:26;;;;;;;9.00;4.35;;;;;;;12.31;74.66;97903.31;4975103;28;20467;-74
2023/10/28 07:03:53;;;;;;;7.82;4.68;;;;;;;12.31;74.82;97908.59;4974916;28;20078;-74
2023/10/28 07:06:20;;;;;;;10.43;4.40;;;;;;;12.32;74.88;97916.34;4974930;28;20053;-77
2023/10/28 07:08:48;;;;;;;8.63;4.78;;;;;;;12.32;75.03;97913.72;4974415;28;20407;-79
2023/10/28 07:11:14;;;;;;;9.02;4.53;;;;;;;12.34;75.13;97927.59;4974667;28;20082;-81
2023/10/28 07:13:41;;;;;;;8.43;4.22;;;;;;;12.36;75.24;97923.00;4974646;28;20110;-74
2023/10/28 07:16:07;;;;;;;8.30;4.18;;;;;;;12.39;75.38;97927.16;4974716;28;20051;-76
2023/10/28 07:18:34;;;;;;;6.65;4.70;;;;;;;12.42;75.47;97923.41;4974443;28;20050;-73
2023/10/28 07:21:02;;;;;;;10.57;4.55;;;;;;;12.45;75.32;97931.84;4974774;28;20181;-78
2023/10/28 07:23:30;;;;;;;9.15;4.97;;;;;;;12.49;75.44;97937.69;4974690;28;20042;-73
2023/10/28 07:26:01;;;;;;;9.50;4.63;;;;;;;12.54;75.51;97939.88;4974327;28;20467;-76
2023/10/28 07:28:36;;;;;;;7.38;3.95;;;;;;;12.56;75.52;97941.38;4974340;28;20085;-74
2023/10/28 07:31:03;;;;;;;9.90;4.50;;;;;;;12.60;75.47;97940.13;4974603;28;20047;-75
2023/10/28 07:33:30;;;;;;;9.55;4.03;;;;;;;12.65;75.46;97944.97;4974447;28;20050;-80
2023/10/28 07:35:57;;;;;;;10.77;4.28;;;;;;;12.68;75.63;97939.41;4974408;28;20046;-79
2023/10/28 07:38:23;;;;;;;9.02;4.95;;;;;;;12.73;75.53;97938.97;4974422;28;20046;-75
2023/10/28 07:40:50;;;;;;;6.25;4.00;;;;;;;12.76;75.60;97947.41;4974129;28;20042;-75
2023/10/28 07:43:20;;;;;;;7.75;3.90;;;;;;;12.81;75.24;97954.06;4974205;28;20046;-74
2023/10/28 07:45:46;;;;;;;7.90;3.65;;;;;;;12.85;75.41;97953.63;4972979;28;20141;-80
2023/10/28 07:48:14;;;;;;;4.85;4.05;;;;;;;12.88;75.19;97952.50;4974259;28;20050;-72
2023/10/28 07:50:42;;;;;;;10.23;4.20;;;;;;;12.90;74.92;97954.03;4972813;28;20046;-74
2023/10/28 07:53:09;;;;;;;7.78;4.00;;;;;;;12.92;75.32;97948.59;4974020;28;20074;-72
2023/10/28 07:55:38;;;;;;;5.25;3.67;;;;;;;12.96;75.03;97947.31;4974164;28;20054;-74
2023/10/28 07:58:05;;;;;;;6.43;3.90;;;;;;;12.98;75.00;97952.47;5005281;28;20055;-73
2023/10/28 08:00:34;;;;;;;7.35;4.03;;;;;;;13.01;74.95;97957.47;4973852;28;20061;-76
2023/10/28 08:03:00;;;;;;;7.38;3.67;;;;;;;13.04;74.85;97946.56;4972520;28;20395;-73
2023/10/28 08:05:27;;;;;;;5.88;3.33;;;;;;;13.05;74.89;97953.53;4973752;28;20149;-72
2023/10/28 08:07:54;;;;;;;5.50;3.65;;;;;;;13.08;74.81;97953.22;4972693;28;20109;-76
2023/10/28 08:10:24;;;;;;;9.48;4.25;;;;;;;13.11;74.87;97947.66;4973786;28;20082;-74
2023/10/28 08:12:54;;;;;;;6.07;4.22;;;;;;;13.12;74.72;97951.13;4973589;28;20113;-75
2023/10/28 08:15:21;;;;;;;9.27;4.15;;;;;;;13.16;75.00;97955.94;4972334;28;20479;-72
2023/10/28 08:17:48;;;;;;;6.47;4.28;;;;;;;13.19;74.71;97959.28;4973547;28;20043;-74
2023/10/28 08:20:15;;;;;;;5.93;4.18;;;;;;;13.20;74.73;97945.91;4972059;28;20082;-73
2023/10/28 08:22:43;;;;;;;9.32;4.30;;;;;;;13.22;74.79;97948.41;4973267;28;20538;-74
2023/10/28 08:25:15;;;;;;;5.15;4.00;;;;;;;13.25;74.70;97953.41;4972426;28;20399;-72
2023/10/28 08:27:44;;;;;;;7.32;4.15;;;;;;;13.28;74.44;97953.91;4972427;28;20051;-73
2023/10/28 08:30:17;;;;;;;8.57;4.05;;;;;;;13.31;74.61;97950.19;4973370;28;20134;-74
2023/10/28 08:32:44;;;;;;;9.95;4.03;;;;;;;13.35;74.80;97959.44;4972086;28;20407;-77
2023/10/28 08:35:11;;;;;;;6.50;4.13;;;;;;;13.37;74.62;97951.38;4973535;28;20495;-76
2023/10/28 08:37:38;;;;;;;6.20;3.95;;;;;;;13.40;74.87;97959.00;4973323;28;20047;-73
2023/10/28 08:40:10;;;;;;;5.68;4.05;;;;;;;13.44;74.90;97960.38;4973128;28;20046;-77
2023/10/28 08:42:37;;;;;;;6.38;3.85;;;;;;;13.49;74.75;97962.59;4973473;28;20110;-73
2023/10/28 08:45:05;;;;;;;4.72;3.75;;;;;;;13.52;74.67;97968.41;4971813;28;20372;-73
2023/10/28 08:47:34;;;;;;;5.22;3.95;;;;;;;13.55;74.71;97962.81;4971709;28;20471;-75
2023/10/28 08:50:06;;;;;;;7.38;3.90;;;;;;;13.59;74.53;97971.28;4973046;28;20054;-77
2023/10/28 08:52:36;;;;;;;8.25;3.42;;;;;;;13.63;74.50;97971.78;4973140;28;20046;-76
2023/10/28 08:55:03;;;;;;;5.30;3.42;;;;;;;13.66;74.57;97969.69;4972876;28;20546;-77
2023/10/28 08:57:34;;;;;;;6.90;3.40;;;;;;;13.70;74.40;97979.94;4972830;28;20479;-73
2023/10/28 09:00:04;;;;;;;7.35;3.53;;;;;;;13.74;74.57;97966.28;4972638;28;20074;-73
2023/10/28 09:02:31;;;;;;;9.40;3.28;;;;;;;13.78;74.37;97977.38;4972907;28;20058;-74
2023/10/28 09:04:58;;;;;;;7.60;3.70;;;;;;;13.81;74.03;97974.44;4972835;28;20082;-75
2023/10/28 09:07:24;;;;;;;5.97;3.70;;;;;;;13.84;74.44;97974.13;4972764;28;20086;-74
2023/10/28 09:09:58;;;;;;;5.32;3.72;;;;;;;13.85;73.98;97991.66;4972574;28;20141;-76
2023/10/28 09:12:25;;;;;;;7.15;3.80;;;;;;;13.90;73.92;97986.75;4972589;28;20057;-73
2023/10/28 09:14:52;;;;;;;4.07;3.40;;;;;;;13.92;73.80;97984.78;4972792;28;20051;-75
2023/10/28 09:17:20;;;;;;;8.43;3.63;;;;;;;13.93;73.59;97994.38;4972629;28;20039;-72
2023/10/28 09:19:47;;;;;;;5.88;3.40;;;;;;;13.93;73.46;97990.88;4972448;28;20054;-78
2023/10/28 09:22:14;;;;;;;4.65;2.95;;;;;;;13.93;73.16;97994.38;4972531;28;20053;-73
2023/10/28 09:24:46;;;;;;;7.60;3.13;;;;;;;13.90;73.04;97997.31;4971172;28;20058;-75
2023/10/28 09:27:15;;;;;;;6.13;3.03;;;;;;;13.92;73.52;97998.00;4972601;28;20376;-77
2023/10/28 09:29:41;;;;;;;6.22;3.40;;;;;;;13.91;73.70;97996.31;4972191;28;20043;-76
2023/10/28 09:32:09;;;;;;;5.55;3.15;;;;;;;13.92;73.72;97995.38;4972224;28;20140;-77
2023/10/28 09:34:40;;;;;;;7.15;3.15;;;;;;;13.94;73.67;97996.03;4971885;28;20451;-76
2023/10/28 09:37:08;;;;;;;5.50;2.90;;;;;;;13.96;73.56;98010.91;4971229;28;20050;-74
2023/10/28 09:39:36;;;;;;;6.25;3.20;;;;;;;13.96;73.63;97998.53;4972036;28;20046;-73
2023/10/28 09:42:03;;;;;;;5.05;3.03;;;;;;;13.96;73.82;97998.53;4970943;28;20558;-75
2023/10/28 09:44:30;;;;;;;4.60;2.97;;;;;;;13.98;74.01;98001.84;4972341;28;20050;-72
2023/10/28 09:47:03;;;;;;;5.55;2.90;;;;;;;13.99;73.66;98002.69;4972123;28;20424;-74
2023/10/28 09:49:31;;;;;;;5.07;2.60;;;;;;;14.02;73.78;98011.13;4970817;28;20057;-73
2023/10/28 09:52:05;;;;;;;4.25;3.10;;;;;;;14.01;73.26;98009.47;4972054;28;20141;-78
2023/10/28 09:54:35;;;;;;;6.22;2.70;;;;;;;14.03;73.43;98009.31;4972148;28;20491;-75
2023/10/28 09:57:02;;;;;;;2.75;2.13;;;;;;;14.03;73.48;98009.31;4972187;28;20082;-75
2023/10/28 09:59:36;;;;;;;4.88;2.53;;;;;;;14.03;73.31;98009.31;4971943;28;20066;-76
2023/10/28 10:02:14;;;;;;;5.68;2.55;;;;;;;13.99;73.22;98006.16;4971985;28;20086;-73
2023/10/28 10:04:48;;;;;;;4.45;2.33;;;;;;;14.03;73.41;98007.53;4971859;28;20559;-74
2023/10/28 10:07:16;;;;;;;;;;;;;;;14.04;73.42;98005.69;4974913;28;20038;-76
2023/10/28 10:09:43;;;;;;;2.95;2.00;;;;;;;14.08;73.28;98009.69;4971666;28;19957;-74
2023/10/28 10:12:28;;;;;;;2.88;2.03;;;;;;;14.08;73.50;98001.75;4971866;28;20042;-75
2023/10/28 10:14:56;;;;;;;2.22;1.90;;;;;;;14.07;73.43;97997.44;4971745;28;20051;-80
2023/10/28 10:17:38;;;;;;;3.25;1.77;;;;;;;14.02;73.12;98008.47;4970749;28;20392;-78
2023/10/28 10:20:06;;;;;;;2.95;2.10;;;;;;;14.07;73.43;97998.28;4971869;28;20047;-76
2023/10/28 10:22:35;;;;;;;3.95;2.25;;;;;;;14.08;73.89;98009.69;4971816;28;20046;-74
2023/10/28 10:25:02;;;;;;;6.43;2.28;;;;;;;14.07;73.45;98005.38;4971823;28;20043;-75
2023/10/28 10:27:45;;;;;;;2.95;1.92;;;;;;;14.04;73.17;98010.97;4971647;28;20131;-75
2023/10/28 10:30:13;;;;;;;3.95;1.92;;;;;;;14.07;73.26;98008.03;4971583;28;20101;-74
2023/10/28 10:32:47;;;;;;;3.53;2.05;;;;;;;14.03;72.98;98004.88;4971806;28;20043;-75
2023/10/28 10:35:28;;;;;;;5.30;2.10;;;;;;;14.01;73.05;97998.06;4971639;28;20054;-72
2023/10/28 10:38:06;;;;;;;3.30;2.40;;;;;;;14.00;72.99;98007.81;4971574;28;20113;-76
2023/10/28 10:40:47;;;;;;;6.18;2.30;;;;;;;14.03;73.38;98011.97;4971629;28;20129;-75
2023/10/28 10:43:21;;;;;;;2.67;2.08;;;;;;;14.02;73.31;98003.19;4971797;28;20125;-75
2023/10/28 10:45:48;;;;;;;2.65;2.30;;;;;;;14.04;73.72;98001.25;4974566;28;20054;-72
2023/10/28 10:48:16;;;;;;;4.13;2.15;;;;;;;14.03;73.64;98006.69;4975176;28;20139;-73
2023/10/28 10:50:43;;;;;;;2.72;1.88;;;;;;;14.03;73.42;98001.38;4975228;28;20039;-72
2023/10/28 10:53:11;;;;;;;3.92;1.95;;;;;;;14.01;73.36;98008.63;4975093;28;20436;-75
2023/10/28 10:55:40;;;;;;;2.97;1.85;;;;;;;13.99;73.58;98008.81;4975138;28;20491;-76
2023/10/28 10:58:07;;;;;;;4.72;1.95;;;;;;;13.98;73.44;98001.84;4975113;28;20582;-71
2023/10/28 11:00:34;;;;;;;2.15;1.65;;;;;;;13.97;73.63;98002.81;4974722;28;20471;-77
2023/10/28 11:03:03;;;;;;;4.90;1.90;;;;;;;13.97;74.03;98002.00;4975129;28;20051;-79
2023/10/28 11:05:30;;;;;;;2.67;1.70;;;;;;;13.97;73.87;98007.31;4974954;28;20043;-71
2023/10/28 11:07:58;;;;;;;2.33;1.65;;;;;;;13.98;73.93;98016.91;4975053;28;20057;-74
2023/10/28 11:10:25;;;;;;;3.15;1.67;;;;;;;13.98;74.00;98017.72;4974659;28;20074;-73
2023/10/28 11:12:52;;;;;;;2.50;2.10;;;;;;;13.98;74.24;98003.66;4974345;28;20069;-71
2023/10/28 11:15:22;;;;;;;2.63;1.92;;;;;;;13.98;74.28;97996.53;4974320;28;20106;-77
2023/10/28 11:17:52;;;;;;;3.13;2.00;;;;;;;14.00;74.38;98001.69;4972800;28;20047;-76
2023/10/28 11:20:20;;;;;;;3.05;1.80;;;;;;;14.02;74.27;97997.09;4974499;28;20042;-78
2023/10/28 11:22:47;;;;;;;3.22;2.13;;;;;;;14.03;74.29;98001.38;4974511;28;20101;-75
2023/10/28 11:25:14;;;;;;;2.70;1.70;;;;;;;14.03;74.15;97996.94;4974837;28;20372;-74
2023/10/28 11:27:41;;;;;;;1.65;1.50;;;;;;;14.04;74.33;97993.31;4974387;28;20156;-75
2023/10/28 11:30:08;;;;;;;5.80;1.73;;;;;;;14.04;74.25;97995.94;4974562;28;20046;-77